Here is the Quick Look data you requested

The Data originates at the National Weather Service, and is made available here by the UAlbany Department of Atmospheric and Environmental Sciences

Surface Observations

KACK 261453Z 19015KT 5SM BR BKN002 22/21 A3007 RMK AO2 RAB01E19 SLP183 P0000
 60000 T02170211 58007=
KAQW 261452Z AUTO 22012G18KT 10SM FEW033 25/19 A2995 RMK AO2 SLP140 T02500189
 56008=
KBAF 261453Z 17010KT 10SM FEW006 FEW027 BKN034 23/22 A2997 RMK AO2 SLP148 60002
 T02330222 58017=
KBED 261456Z 21012G19KT 10SM FEW014 SCT021 BKN060 26/22 A2997 RMK AO2 SLP159
 60000 T02560222 58012=
KBOS 261454Z 20013KT 10SM BKN018 BKN026 BKN120 27/22 A2998 RMK AO2 SLP153
 T02670217 56013=
KBVY 261453Z 20011KT 10SM OVC019 26/22 A2998 RMK AO2 SLP146 T02560222 58011=
KCEF 261456Z 18012KT 10SM BKN008 BKN250 23/23 A2997 RMK AO2A SLP154 60000
 T02310231 57013 $=
KCQX 261452Z AUTO 21010G17KT 6SM -RA BR BKN004 BKN023 OVC036 22/21 A3007 RMK
 AO2 RAE04B52 SLP183 P0000 60000 T02170206 58007=
KEWB 261453Z 22009KT 10SM -RA BKN009 OVC015 23/23 A3002 RMK AO2 RAB21 SLP167
 P0000 60004 T02280228 58009=
KFIT 261452Z AUTO 20014G19KT 10SM BKN022 OVC029 24/21 A2999 RMK AO2 SLP154
 60000 T02390206 58009=
KFMH 261455Z AUTO 20013G19KT 6SM -DZ BKN007 BKN010 BKN017 23/23 A3005 RMK AO2=
KHYA 261456Z 20011G20KT 2SM BR OVC003 22/22 A3004 RMK AO2 SLP173 60001
 T02220217 58009=
KLWM 261454Z 20009G17KT 10SM OVC017 27/22 A2999 RMK AO2 SLP155 T02670217 58012=
KMVY 261453Z 20015G23KT 4SM BR BKN004 BKN055 OVC120 22/22 A3005 RMK AO2 RAE38
 SLP175 P0009 60018 T02170217 58006=
KORE 261452Z AUTO 17009KT 10SM BKN014 OVC020 24/22 A2998 RMK AO2 SLP150
 T02390217 58016=
KORH 261454Z 20012KT 10SM BKN007 OVC011 22/22 A3002 RMK AO2 SLP162 60000
 T02220217 58007=
KOWD 261453Z 19009G19KT 10SM BKN020 27/22 A2999 RMK AO2 SLP155 60000 T02670222
 56008=
KPSF 261454Z AUTO 24004KT 10SM BKN017 BKN024 OVC029 23/19 A2997 RMK AO2 SLP128
 T02280189 58009=
KPVC 261456Z AUTO 19010KT 4SM -RA BR OVC007 21/21 A3004 RMK AO2 RAB23 CIG
 003V010 SLP171 P0000 60001 T02110206 56011=
KTAN 261452Z AUTO 21010G17KT 10SM OVC008 24/22 A3002 RMK AO2 SLP164 60004
 T02390217 58010=